Time;durP1;ratioP1;P1;durP2;ratioP2;P2;SDS_P1;SDS_P2;PMS_P1;PMS_P2;Temp;Humidity;BMP_temperature;BMP_pressure;BME280_temperature;BME280_humidity;BME280_pressure;Samples;Min_cycle;Max_cycle;Signal;HPM_P1;HPM_P2
2021/07/26 00:00:09;;;;;;;17.55;12.05;;;17.10;99.70;;;;;;5014453;28;20046;-50
2021/07/26 00:02:35;;;;;;;18.85;12.45;;;17.10;99.70;;;;;;5013171;28;20399;-51
2021/07/26 00:05:01;;;;;;;14.63;11.77;;;17.20;99.70;;;;;;5010888;28;20045;-53
2021/07/26 00:07:27;;;;;;;16.55;11.73;;;17.20;99.70;;;;;;5008303;28;20029;-50
2021/07/26 00:09:52;;;;;;;19.45;12.02;;;17.20;99.70;;;;;;5013456;28;20042;-51
2021/07/26 00:12:18;;;;;;;17.13;13.20;;;17.20;99.60;;;;;;5009247;28;20041;-51
2021/07/26 00:14:44;;;;;;;18.08;12.27;;;17.20;99.60;;;;;;5012272;28;20053;-49
2021/07/26 00:17:11;;;;;;;18.83;12.27;;;17.10;99.60;;;;;;5012576;28;20044;-53
2021/07/26 00:19:37;;;;;;;18.23;11.57;;;17.10;99.50;;;;;;5013874;28;20403;-49
2021/07/26 00:22:03;;;;;;;15.95;11.88;;;17.00;99.60;;;;;;5013907;28;20049;-52
2021/07/26 00:24:29;;;;;;;16.42;12.30;;;17.00;99.60;;;;;;5014968;28;20050;-52
2021/07/26 00:26:54;;;;;;;15.02;11.50;;;17.00;99.60;;;;;;5012985;28;20073;-51
2021/07/26 00:29:20;;;;;;;14.38;11.02;;;17.00;99.60;;;;;;5013776;28;20502;-53
2021/07/26 00:31:49;;;;;;;17.67;12.13;;;17.00;99.60;;;;;;5013707;28;20073;-52
2021/07/26 00:34:23;;;;;;;17.27;11.18;;;17.00;99.70;;;;;;5012416;28;20054;-54
2021/07/26 00:36:57;;;;;;;17.65;11.15;;;17.00;99.70;;;;;;5000801;28;20041;-53
2021/07/26 00:39:27;;;;;;;18.10;12.23;;;17.00;99.70;;;;;;5013350;28;20042;-52
2021/07/26 00:41:54;;;;;;;14.90;10.75;;;17.00;99.70;;;;;;5003462;28;20052;-51
2021/07/26 00:44:22;;;;;;;16.90;11.95;;;17.00;99.70;;;;;;5012830;28;20049;-50
2021/07/26 00:46:49;;;;;;;21.10;11.82;;;17.00;99.60;;;;;;4995640;28;20048;-51
2021/07/26 00:49:16;;;;;;;15.38;11.55;;;16.90;99.50;;;;;;5013415;28;20144;-50
2021/07/26 00:51:48;;;;;;;14.20;11.25;;;16.90;99.50;;;;;;5013345;28;20050;-51
2021/07/26 00:54:19;;;;;;;19.35;11.75;;;16.80;99.50;;;;;;5012374;28;20100;-54
2021/07/26 00:56:47;;;;;;;18.00;10.50;;;16.80;99.60;;;;;;5028905;28;20051;-51
2021/07/26 00:59:15;;;;;;;19.58;7.20;;;16.80;99.70;;;;;;5024715;28;20088;-51
2021/07/26 01:01:42;;;;;;;12.32;6.88;;;16.70;99.50;;;;;;5013559;28;20046;-50
2021/07/26 01:04:08;;;;;;;11.80;6.88;;;16.60;99.20;;;;;;5018708;28;20041;-50
2021/07/26 01:06:34;;;;;;;15.68;7.75;;;16.60;99.20;;;;;;5010431;28;20148;-50
2021/07/26 01:09:00;;;;;;;11.93;7.65;;;16.50;99.20;;;;;;5006016;28;20072;-52
2021/07/26 01:11:26;;;;;;;10.52;6.90;;;16.50;99.20;;;;;;5012575;28;20107;-51
2021/07/26 01:13:52;;;;;;;11.27;7.50;;;16.50;99.20;;;;;;5005308;28;20458;-51
2021/07/26 01:16:18;;;;;;;9.65;7.15;;;16.50;99.30;;;;;;5001785;28;20081;-50
2021/07/26 01:18:44;;;;;;;11.48;7.68;;;16.40;99.30;;;;;;4991507;28;20463;-50
2021/07/26 01:21:12;;;;;;;11.13;8.20;;;16.50;99.40;;;;;;5018739;28;20044;-51
2021/07/26 01:23:40;;;;;;;10.50;8.93;;;16.40;99.30;;;;;;5014969;28;20084;-50
2021/07/26 01:26:09;;;;;;;10.13;8.05;;;16.40;99.30;;;;;;5011853;28;20046;-48
2021/07/26 01:28:40;;;;;;;11.10;8.93;;;16.40;99.40;;;;;;5023539;28;20041;-48
2021/07/26 01:31:10;;;;;;;14.13;8.93;;;16.40;99.40;;;;;;5029491;28;20383;-48
2021/07/26 01:33:36;;;;;;;11.43;9.27;;;16.40;99.40;;;;;;5003922;28;20126;-51
2021/07/26 01:36:02;;;;;;;17.42;10.10;;;16.40;99.50;;;;;;5010585;28;20076;-47
2021/07/26 01:38:29;;;;;;;11.25;9.52;;;16.40;99.40;;;;;;5009779;28;20502;-48
2021/07/26 01:40:57;;;;;;;16.95;10.60;;;16.30;99.40;;;;;;5009767;28;20038;-48
2021/07/26 01:43:31;;;;;;;11.68;9.65;;;16.30;99.40;;;;;;5012183;28;20145;-48
2021/07/26 01:46:13;;;;;;;11.55;8.30;;;16.30;99.40;;;;;;5009425;28;20124;-51
2021/07/26 01:48:55;;;;;;;9.50;7.00;;;16.30;99.50;;;;;;5006130;28;20049;-52
2021/07/26 01:51:37;;;;;;;10.40;6.57;;;16.30;99.40;;;;;;5000438;28;20068;-48
2021/07/26 01:54:04;;;;;;;8.50;6.00;;;16.30;99.40;;;;;;4998280;28;20508;-49
2021/07/26 01:56:32;;;;;;;11.18;7.10;;;16.20;99.20;;;;;;5003954;28;20057;-49
2021/07/26 01:58:58;;;;;;;8.48;7.57;;;16.20;99.10;;;;;;5003803;28;20495;-48
2021/07/26 02:01:24;;;;;;;13.43;8.95;;;16.10;99.20;;;;;;5006308;28;20069;-51
2021/07/26 02:03:49;;;;;;;10.18;8.80;;;16.10;99.30;;;;;;4995893;28;20038;-48
2021/07/26 02:06:15;;;;;;;8.82;7.50;;;16.20;99.30;;;;;;4994831;28;20513;-51
2021/07/26 02:08:40;;;;;;;11.98;7.55;;;16.10;99.40;;;;;;5001057;28;20046;-47
2021/07/26 02:11:08;;;;;;;9.00;7.70;;;16.10;99.40;;;;;;5010475;28;20410;-51
2021/07/26 02:13:35;;;;;;;10.65;8.73;;;16.10;99.30;;;;;;5012118;28;20044;-49
2021/07/26 02:16:03;;;;;;;12.95;9.13;;;16.10;99.30;;;;;;5024926;28;20044;-50
2021/07/26 02:18:29;;;;;;;13.10;9.98;;;16.10;99.40;;;;;;4992683;28;20043;-49
2021/07/26 02:20:54;;;;;;;17.20;10.30;;;16.10;99.40;;;;;;5024127;28;20056;-50
2021/07/26 02:23:20;;;;;;;14.38;9.45;;;16.10;99.40;;;;;;5005832;28;20126;-50
2021/07/26 02:25:46;;;;;;;11.88;9.40;;;16.10;99.40;;;;;;5011177;28;20447;-52
2021/07/26 02:28:11;;;;;;;14.10;10.20;;;16.10;99.40;;;;;;5012637;28;20060;-52
2021/07/26 02:30:37;;;;;;;13.70;9.70;;;16.10;99.50;;;;;;5015096;28;20088;-50
2021/07/26 02:33:03;;;;;;;9.52;8.23;;;16.10;99.50;;;;;;5011508;28;20088;-48
2021/07/26 02:35:29;;;;;;;8.55;6.40;;;16.10;99.50;;;;;;5011596;28;20640;-48
2021/07/26 02:37:57;;;;;;;10.38;6.10;;;16.10;99.40;;;;;;5003706;28;20048;-52
2021/07/26 02:40:29;;;;;;;8.13;5.43;;;16.10;99.30;;;;;;5008434;28;20038;-52
2021/07/26 02:42:55;;;;;;;9.20;5.93;;;16.00;99.10;;;;;;5010835;28;20034;-49
2021/07/26 02:45:24;;;;;;;9.52;6.72;;;16.00;99.10;;;;;;5009490;28;20076;-50
2021/07/26 02:47:51;;;;;;;11.77;6.85;;;15.90;99.10;;;;;;5010393;28;20041;-48
2021/07/26 02:50:17;;;;;;;9.82;7.00;;;15.90;99.20;;;;;;4993662;28;20060;-49
2021/07/26 02:52:42;;;;;;;9.48;6.95;;;15.90;99.30;;;;;;5008020;28;20046;-55
2021/07/26 02:55:09;;;;;;;9.00;7.60;;;15.90;99.30;;;;;;5008399;28;20127;-52
2021/07/26 02:57:35;;;;;;;13.40;8.25;;;16.00;99.30;;;;;;4986369;28;20050;-52
2021/07/26 03:00:01;;;;;;;6.80;5.40;;;15.90;99.30;;;;;;5012753;28;20042;-51
2021/07/26 03:02:27;;;;;;;6.55;4.40;;;15.90;99.30;;;;;;5011001;28;20035;-48
2021/07/26 03:04:53;;;;;;;5.38;4.43;;;15.90;99.20;;;;;;5010227;28;20410;-50
2021/07/26 03:07:20;;;;;;;6.20;4.47;;;15.90;99.20;;;;;;5010907;28;20413;-51
2021/07/26 03:09:47;;;;;;;5.45;4.00;;;15.90;99.10;;;;;;5011361;28;20037;-50
2021/07/26 03:12:12;;;;;;;8.60;4.20;;;15.80;99.00;;;;;;5011908;28;20437;-50
2021/07/26 03:14:38;;;;;;;7.60;5.32;;;15.80;99.00;;;;;;5011203;28;20042;-49
2021/07/26 03:17:05;;;;;;;6.72;5.30;;;15.80;99.10;;;;;;5011341;28;20042;-52
2021/07/26 03:19:31;;;;;;;8.45;5.80;;;15.70;99.10;;;;;;5012230;28;20041;-49
2021/07/26 03:22:38;;;;;;;9.25;6.50;;;15.80;99.20;;;;;;5010542;28;20038;-48
2021/07/26 03:25:05;;;;;;;13.35;8.00;;;15.80;99.30;;;;;;5007667;28;20037;-49
2021/07/26 03:27:30;;;;;;;13.18;7.38;;;15.80;99.30;;;;;;5009489;28;20041;-49
2021/07/26 03:29:56;;;;;;;9.75;7.57;;;15.80;99.40;;;;;;5021556;28;20064;-49
2021/07/26 03:32:22;;;;;;;10.85;8.18;;;15.80;99.40;;;;;;5010810;28;20415;-54
2021/07/26 03:34:48;;;;;;;9.10;8.00;;;15.80;99.40;;;;;;5012471;28;20163;-49
2021/07/26 03:37:14;;;;;;;12.98;8.52;;;15.80;99.40;;;;;;5012790;28;20042;-53
2021/07/26 03:39:39;;;;;;;13.18;8.20;;;15.80;99.50;;;;;;5009356;28;20133;-48
2021/07/26 03:42:05;;;;;;;10.85;8.73;;;15.80;99.50;;;;;;5008888;28;20498;-48
2021/07/26 03:44:31;;;;;;;11.85;8.68;;;15.80;99.50;;;;;;5008710;28;20053;-50
2021/07/26 03:47:00;;;;;;;13.07;8.40;;;15.80;99.50;;;;;;5010405;28;20049;-52
2021/07/26 03:49:26;;;;;;;14.25;8.82;;;15.80;99.50;;;;;;5009038;28;20410;-48
2021/07/26 03:51:51;;;;;;;13.05;8.10;;;15.80;99.50;;;;;;5009405;28;20045;-52
2021/07/26 03:54:17;;;;;;;11.90;9.40;;;15.80;99.40;;;;;;5010804;28;20046;-49
2021/07/26 03:56:46;;;;;;;15.35;8.98;;;15.80;99.40;;;;;;5010735;28;20503;-51
2021/07/26 03:59:12;;;;;;;11.98;9.52;;;15.80;99.50;;;;;;5010231;28;20049;-49
2021/07/26 04:01:37;;;;;;;10.02;7.90;;;15.80;99.50;;;;;;5011628;28;20485;-52
2021/07/26 04:04:04;;;;;;;10.98;7.93;;;15.80;99.50;;;;;;5023915;28;20088;-51
2021/07/26 04:06:29;;;;;;;15.90;8.73;;;15.90;99.50;;;;;;5010634;28;20108;-50
2021/07/26 04:08:55;;;;;;;16.63;10.43;;;15.90;99.60;;;;;;5009963;28;20502;-51
2021/07/26 04:13:55;;;;;;;14.75;9.82;;;15.90;99.50;;;;;;5013398;28;20045;-50
2021/07/26 04:16:20;;;;;;;12.82;9.70;;;15.90;99.50;;;;;;5002166;28;20100;-52
2021/07/26 04:18:49;;;;;;;18.90;11.50;;;16.00;99.60;;;;;;5014369;28;20042;-52
2021/07/26 04:21:15;;;;;;;14.82;11.80;;;15.90;99.60;;;;;;5013445;28;20414;-52
2021/07/26 04:23:41;;;;;;;17.13;12.23;;;16.00;99.60;;;;;;5012099;28;20038;-53
2021/07/26 04:26:07;;;;;;;18.00;12.93;;;16.00;99.70;;;;;;4995667;28;20049;-50
2021/07/26 04:28:36;;;;;;;19.80;15.18;;;16.00;99.70;;;;;;5012849;28;20449;-51
2021/07/26 04:31:03;;;;;;;20.38;15.23;;;16.00;99.70;;;;;;5013610;28;20038;-51
2021/07/26 04:33:32;;;;;;;28.65;22.05;;;16.00;99.70;;;;;;5015218;28;20518;-51
2021/07/26 04:35:58;;;;;;;24.67;20.92;;;16.10;99.80;;;;;;5012811;28;20045;-51
2021/07/26 04:38:24;;;;;;;33.45;24.98;;;16.10;99.90;;;;;;5014625;28;20495;-50
2021/07/26 04:40:49;;;;;;;35.70;25.83;;;16.20;99.90;;;;;;5012535;28;20070;-52
2021/07/26 04:43:15;;;;;;;34.13;25.23;;;16.20;99.90;;;;;;5008665;28;20117;-49
2021/07/26 04:45:41;;;;;;;37.53;26.48;;;16.30;99.90;;;;;;5015563;28;20103;-50
2021/07/26 04:48:07;;;;;;;37.03;26.20;;;16.40;99.90;;;;;;4997429;28;20038;-52
2021/07/26 04:50:33;;;;;;;41.72;27.05;;;16.40;99.90;;;;;;4963258;28;20478;-53
2021/07/26 04:52:59;;;;;;;34.58;27.60;;;16.50;99.90;;;;;;5006114;28;20096;-50
2021/07/26 04:55:25;;;;;;;36.50;26.17;;;16.50;99.90;;;;;;5012377;28;20468;-51
2021/07/26 04:57:52;;;;;;;34.60;27.23;;;16.50;99.90;;;;;;5018459;28;20046;-50
2021/07/26 05:00:17;;;;;;;32.25;24.88;;;16.50;99.90;;;;;;5019866;28;20041;-50
2021/07/26 05:02:43;;;;;;;30.52;25.23;;;16.60;99.90;;;;;;5006508;28;20033;-51
2021/07/26 05:05:09;;;;;;;33.25;25.52;;;16.60;99.90;;;;;;5005341;28;20068;-53
2021/07/26 05:07:35;;;;;;;35.35;27.05;;;16.70;99.90;;;;;;5014549;28;20073;-50
2021/07/26 05:10:02;;;;;;;39.95;27.52;;;16.60;99.90;;;;;;5016857;28;20084;-52
2021/07/26 05:12:28;;;;;;;32.70;25.17;;;16.70;99.90;;;;;;5010718;28;20353;-51
2021/07/26 05:14:54;;;;;;;35.95;27.00;;;16.70;99.90;;;;;;5012832;28;20487;-52
2021/07/26 05:17:23;;;;;;;37.38;26.45;;;16.70;99.90;;;;;;5013869;28;20403;-51
2021/07/26 05:19:50;;;;;;;33.30;25.92;;;16.80;99.90;;;;;;5013604;28;20528;-51
2021/07/26 05:22:15;;;;;;;34.47;26.23;;;16.80;99.90;;;;;;5014352;28;20129;-51
2021/07/26 05:24:42;;;;;;;30.33;24.98;;;16.80;99.90;;;;;;5009102;28;20069;-50
2021/07/26 05:27:07;;;;;;;33.08;24.55;;;16.90;99.90;;;;;;5012168;28;20070;-50
2021/07/26 05:29:34;;;;;;;30.45;25.15;;;16.80;99.90;;;;;;5014071;28;20053;-50
2021/07/26 05:31:59;;;;;;;32.08;25.05;;;16.90;99.90;;;;;;5015121;28;20057;-50
2021/07/26 05:34:26;;;;;;;27.77;22.63;;;16.90;99.90;;;;;;5013436;28;20050;-51
2021/07/26 05:36:53;;;;;;;31.75;23.60;;;17.00;99.90;;;;;;4997684;28;20050;-48
2021/07/26 05:39:18;;;;;;;28.35;22.38;;;17.00;99.90;;;;;;5013882;28;20062;-48
2021/07/26 05:41:45;;;;;;;31.33;24.52;;;17.10;99.90;;;;;;5013515;28;20419;-48
2021/07/26 05:44:11;;;;;;;25.90;21.85;;;17.10;99.90;;;;;;5013879;28;20426;-47
2021/07/26 05:46:38;;;;;;;26.02;22.35;;;17.20;99.90;;;;;;5000579;28;20044;-49
2021/07/26 05:49:03;;;;;;;28.67;23.27;;;17.20;99.90;;;;;;5008172;28;20042;-48
2021/07/26 05:51:29;;;;;;;26.33;21.55;;;17.30;99.90;;;;;;5014814;28;20090;-53
2021/07/26 05:53:55;;;;;;;24.95;22.27;;;17.30;99.90;;;;;;5027721;28;20525;-50
2021/07/26 05:56:20;;;;;;;25.05;20.38;;;17.50;99.90;;;;;;5031841;28;20049;-49
2021/07/26 05:58:49;;;;;;;25.27;19.23;;;17.50;99.80;;;;;;5019861;28;20049;-52
2021/07/26 06:03:50;;;;;;;23.13;19.88;;;17.60;99.60;;;;;;4998430;28;20092;-52
2021/07/26 06:06:17;;;;;;;23.13;19.10;;;17.70;99.40;;;;;;5004150;28;20048;-50
2021/07/26 06:08:44;;;;;;;24.27;20.48;;;17.70;99.40;;;;;;5012816;28;20080;-50
2021/07/26 06:11:09;;;;;;;23.42;19.55;;;17.70;99.30;;;;;;5013198;28;20042;-50
2021/07/26 06:13:35;;;;;;;20.85;18.38;;;17.70;99.40;;;;;;5004032;28;20038;-53
2021/07/26 06:16:06;;;;;;;23.20;19.40;;;17.80;99.40;;;;;;5009363;28;20093;-52
2021/07/26 06:18:32;;;;;;;23.27;17.88;;;17.80;99.30;;;;;;5012941;28;20050;-53
2021/07/26 06:20:58;;;;;;;19.02;16.88;;;17.80;99.30;;;;;;5013257;28;20040;-50
2021/07/26 06:23:24;;;;;;;19.58;16.38;;;17.90;99.30;;;;;;5027666;28;20053;-52
2021/07/26 06:25:50;;;;;;;19.70;16.50;;;18.00;99.30;;;;;;5011039;28;20438;-51
2021/07/26 06:28:16;;;;;;;22.15;16.42;;;18.10;99.20;;;;;;5012715;28;20033;-53
2021/07/26 06:30:42;;;;;;;20.63;15.95;;;18.10;98.90;;;;;;5031455;28;20048;-51
2021/07/26 06:33:09;;;;;;;18.25;16.02;;;18.20;98.80;;;;;;5022457;28;20037;-51
2021/07/26 06:35:35;;;;;;;19.95;15.73;;;18.20;98.80;;;;;;5010721;28;20046;-52
2021/07/26 06:38:00;;;;;;;18.75;15.60;;;18.30;98.80;;;;;;5014148;28;20041;-52
2021/07/26 06:40:26;;;;;;;20.08;16.08;;;18.30;98.70;;;;;;5014024;28;20042;-54
2021/07/26 06:42:52;;;;;;;24.77;15.95;;;18.40;98.70;;;;;;5011965;28;20557;-52
2021/07/26 06:45:18;;;;;;;18.63;16.65;;;18.40;98.70;;;;;;5006062;28;20045;-53
2021/07/26 06:47:49;;;;;;;25.75;16.92;;;18.40;98.80;;;;;;5016811;28;20842;-52
2021/07/26 06:50:15;;;;;;;21.45;16.63;;;18.50;98.90;;;;;;5016644;28;20057;-48
2021/07/26 06:52:41;;;;;;;19.13;15.15;;;18.50;98.90;;;;;;5016503;28;20502;-50
2021/07/26 06:55:07;;;;;;;17.50;15.52;;;18.60;99.00;;;;;;5014234;28;20056;-51
2021/07/26 06:57:34;;;;;;;17.08;14.38;;;18.60;99.00;;;;;;5006510;28;20037;-51
2021/07/26 07:00:00;;;;;;;20.00;16.52;;;18.70;98.70;;;;;;5001627;28;20046;-49
2021/07/26 07:02:26;;;;;;;16.88;14.38;;;18.70;98.70;;;;;;5006160;28;20069;-50
2021/07/26 07:04:51;;;;;;;22.15;16.33;;;18.80;98.70;;;;;;5013623;28;20096;-54
2021/07/26 07:07:17;;;;;;;19.10;16.35;;;18.80;98.60;;;;;;5008604;28;20050;-50
2021/07/26 07:09:42;;;;;;;20.63;15.30;;;18.80;98.60;;;;;;5009898;28;20462;-53
2021/07/26 07:12:08;;;;;;;18.48;15.13;;;18.80;98.50;;;;;;5008984;28;20045;-50
2021/07/26 07:14:35;;;;;;;19.70;15.68;;;18.90;98.40;;;;;;5013590;28;20092;-51
2021/07/26 07:17:01;;;;;;;20.92;15.80;;;18.90;98.30;;;;;;5020335;28;20148;-52
2021/07/26 07:19:27;;;;;;;19.98;15.65;;;18.90;98.40;;;;;;5021602;28;20144;-50
2021/07/26 07:21:53;;;;;;;16.45;13.68;;;19.00;98.30;;;;;;5028031;28;20839;-51
2021/07/26 07:24:18;;;;;;;17.88;15.00;;;19.10;98.00;;;;;;5019564;28;20053;-50
2021/07/26 07:26:44;;;;;;;17.40;14.77;;;19.10;98.10;;;;;;5004592;28;20450;-50
2021/07/26 07:29:11;;;;;;;16.95;13.80;;;19.10;98.30;;;;;;5005014;28;20046;-53
2021/07/26 07:31:37;;;;;;;15.48;12.55;;;19.20;98.30;;;;;;5002831;28;20038;-49
2021/07/26 07:34:04;;;;;;;18.33;12.82;;;19.20;98.00;;;;;;5021236;28;20064;-52
2021/07/26 07:36:30;;;;;;;16.33;12.25;;;19.30;97.90;;;;;;5018240;28;20045;-50
2021/07/26 07:38:56;;;;;;;15.15;13.27;;;19.30;97.90;;;;;;5017876;28;20064;-52
2021/07/26 07:41:23;;;;;;;16.15;13.13;;;19.30;97.90;;;;;;5004473;28;20042;-52
2021/07/26 07:43:49;;;;;;;15.38;13.50;;;19.40;98.10;;;;;;5011077;28;20037;-53
2021/07/26 07:46:16;;;;;;;14.85;11.77;;;19.50;97.90;;;;;;5017172;28;20039;-53
2021/07/26 07:48:41;;;;;;;14.88;12.18;;;19.60;97.80;;;;;;5018311;28;20057;-50
2021/07/26 07:51:09;;;;;;;14.38;11.48;;;19.70;97.90;;;;;;5026310;28;20041;-52
2021/07/26 07:53:35;;;;;;;15.13;12.23;;;19.80;97.80;;;;;;5020903;28;20088;-51
2021/07/26 07:56:02;;;;;;;12.75;11.07;;;20.00;97.70;;;;;;5022253;28;20065;-49
2021/07/26 07:58:30;;;;;;;14.80;10.25;;;20.10;97.30;;;;;;5020259;28;20041;-49
2021/07/26 08:00:56;;;;;;;14.48;11.15;;;20.20;96.40;;;;;;5022799;28;20096;-48
2021/07/26 08:03:23;;;;;;;12.30;9.75;;;20.40;96.40;;;;;;5015795;28;20049;-51
2021/07/26 08:05:49;;;;;;;12.48;10.25;;;20.40;96.40;;;;;;5024074;28;20101;-50
2021/07/26 08:08:17;;;;;;;13.88;10.43;;;20.50;95.80;;;;;;5022257;28;20117;-53
2021/07/26 08:10:43;;;;;;;14.55;10.25;;;20.60;95.60;;;;;;5028571;28;20041;-53
2021/07/26 08:13:09;;;;;;;12.18;10.18;;;20.70;95.10;;;;;;5029833;28;20560;-53
2021/07/26 08:15:34;;;;;;;14.90;10.52;;;20.70;95.30;;;;;;5025965;28;20045;-50
2021/07/26 08:18:02;;;;;;;13.88;9.73;;;20.80;95.40;;;;;;5022116;28;20038;-50
2021/07/26 08:20:27;;;;;;;12.52;9.65;;;21.00;95.30;;;;;;5022985;28;20037;-50
2021/07/26 08:22:53;;;;;;;15.30;9.90;;;21.00;95.20;;;;;;5020629;28;20036;-53
2021/07/26 08:25:19;;;;;;;10.18;9.07;;;21.10;95.30;;;;;;5018505;28;20148;-51
2021/07/26 08:27:49;;;;;;;12.93;9.63;;;21.20;95.30;;;;;;5028215;28;20104;-49
2021/07/26 08:30:19;;;;;;;17.83;8.80;;;21.30;93.90;;;;;;5031538;28;20261;-52
2021/07/26 08:32:45;;;;;;;13.00;8.52;;;21.40;93.00;;;;;;5028951;28;20072;-51
2021/07/26 08:35:11;;;;;;;13.00;9.35;;;21.50;93.20;;;;;;5029379;28;20521;-49
2021/07/26 08:37:36;;;;;;;13.18;8.65;;;21.50;93.60;;;;;;5021941;28;20504;-52
2021/07/26 08:40:03;;;;;;;12.73;8.13;;;21.60;94.00;;;;;;5027534;28;20053;-50
2021/07/26 08:42:29;;;;;;;10.10;8.65;;;21.70;93.00;;;;;;5011981;28;20469;-51
2021/07/26 08:44:55;;;;;;;10.95;8.45;;;21.80;92.60;;;;;;5011830;28;20180;-51
2021/07/26 08:47:23;;;;;;;10.93;7.80;;;21.80;92.60;;;;;;5016443;28;20394;-51
2021/07/26 08:49:51;;;;;;;12.88;8.38;;;21.80;93.00;;;;;;5008483;28;20038;-51
2021/07/26 08:52:22;;;;;;;12.07;8.48;;;21.80;93.00;;;;;;5010150;28;20101;-53
2021/07/26 08:54:50;;;;;;;10.00;8.27;;;21.80;93.00;;;;;;5002853;28;20089;-54
2021/07/26 08:57:15;;;;;;;11.02;8.10;;;21.90;92.50;;;;;;5015992;28;20045;-53
2021/07/26 08:59:43;;;;;;;11.60;8.02;;;21.90;92.60;;;;;;5015319;28;20045;-51
2021/07/26 09:02:09;;;;;;;9.65;7.63;;;21.90;92.10;;;;;;5006572;28;20125;-51
2021/07/26 09:04:35;;;;;;;11.07;7.38;;;22.00;91.90;;;;;;5016797;28;20079;-54
2021/07/26 09:07:05;;;;;;;12.48;7.97;;;22.00;91.90;;;;;;5015052;28;20511;-53
2021/07/26 09:09:46;;;;;;;12.15;8.60;;;22.10;91.80;;;;;;5025351;28;20053;-48
2021/07/26 09:12:30;;;;;;;10.35;7.18;;;22.30;91.20;;;;;;5003755;28;20062;-49
2021/07/26 09:14:56;;;;;;;10.57;8.15;;;22.40;91.60;;;;;;5002511;28;20069;-50
2021/07/26 09:17:22;;;;;;;12.02;8.20;;;22.50;91.50;;;;;;5008739;28;20198;-50
2021/07/26 09:20:01;;;;;;;14.10;8.20;;;22.60;91.20;;;;;;5017487;28;20487;-49
2021/07/26 09:22:38;;;;;;;11.52;8.27;;;22.60;90.70;;;;;;5000976;28;20046;-48
2021/07/26 09:25:22;;;;;;;12.40;8.23;;;22.60;90.30;;;;;;5014934;28;20077;-50
2021/07/26 09:28:01;;;;;;;13.25;8.50;;;22.60;90.00;;;;;;5002426;28;20115;-50
2021/07/26 09:30:40;;;;;;;11.35;8.43;;;22.60;90.60;;;;;;5011241;28;20071;-50
2021/07/26 09:33:18;;;;;;;9.27;6.93;;;22.60;90.70;;;;;;4986093;28;20081;-50
2021/07/26 09:35:44;;;;;;;10.30;7.88;;;22.60;90.70;;;;;;5023559;28;20038;-50
2021/07/26 09:38:16;;;;;;;13.18;7.50;;;22.50;90.90;;;;;;4992899;28;20093;-50
2021/07/26 09:40:46;;;;;;;8.68;6.47;;;22.40;91.00;;;;;;5008244;28;20041;-51
2021/07/26 09:43:17;;;;;;;10.68;6.68;;;22.30;90.90;;;;;;5003907;28;20050;-52
2021/07/26 09:45:43;;;;;;;10.63;7.35;;;22.30;90.80;;;;;;5008896;28;20048;-49
2021/07/26 09:48:14;;;;;;;9.23;6.03;;;22.30;91.00;;;;;;5014756;28;20054;-50
2021/07/26 09:50:48;;;;;;;8.45;6.13;;;22.30;90.90;;;;;;5015720;28;20077;-51
2021/07/26 09:53:16;;;;;;;7.35;5.65;;;22.40;90.50;;;;;;5015394;28;20053;-50
2021/07/26 09:55:44;;;;;;;7.82;5.43;;;22.40;90.30;;;;;;5014236;28;20038;-53
2021/07/26 09:58:15;;;;;;;9.70;5.38;;;22.40;90.40;;;;;;5016090;28;20042;-50
2021/07/26 10:00:43;;;;;;;14.40;6.18;;;22.40;90.50;;;;;;5016449;28;20042;-50
2021/07/26 10:03:15;;;;;;;7.97;6.05;;;22.40;90.50;;;;;;5014085;28;20057;-50
2021/07/26 10:05:43;;;;;;;10.43;5.60;;;22.60;90.20;;;;;;5013091;28;20050;-49
2021/07/26 10:08:10;;;;;;;7.97;5.28;;;22.70;90.20;;;;;;5013671;28;20108;-52
2021/07/26 10:10:38;;;;;;;6.93;5.28;;;22.90;90.10;;;;;;5012594;28;20049;-52
2021/07/26 10:13:04;;;;;;;7.78;5.60;;;22.90;90.00;;;;;;5014002;28;20111;-52
2021/07/26 10:15:32;;;;;;;8.88;5.65;;;22.90;90.10;;;;;;5014130;28;20054;-52
2021/07/26 10:17:59;;;;;;;6.90;5.35;;;22.90;89.90;;;;;;5015366;28;20038;-52
2021/07/26 10:20:41;;;;;;;7.55;5.07;;;22.80;89.50;;;;;;5017603;28;20482;-54
2021/07/26 10:23:10;;;;;;;6.25;4.35;;;22.70;88.80;;;;;;5008078;28;20045;-52
2021/07/26 10:25:56;;;;;;;6.97;5.32;;;22.60;86.60;;;;;;5009127;28;20077;-50
2021/07/26 10:28:32;;;;;;;8.73;4.93;;;22.60;88.00;;;;;;5017650;28;20056;-50
2021/07/26 10:30:58;;;;;;;8.35;4.85;;;22.60;86.60;;;;;;5016432;28;20042;-52
2021/07/26 10:33:25;;;;;;;10.30;6.05;;;22.70;87.00;;;;;;5015357;28;20111;-51
2021/07/26 10:35:52;;;;;;;7.43;4.45;;;22.90;88.50;;;;;;5015235;28;20045;-53
2021/07/26 10:38:48;;;;;;;8.65;4.68;;;23.00;88.80;;;;;;5006289;28;20038;-53
2021/07/26 10:41:43;;;;;;;6.15;4.00;;;23.10;83.60;;;;;;5007982;28;20400;-52
2021/07/26 10:44:18;;;;;;;4.93;3.67;;;23.00;84.40;;;;;;5015754;28;20052;-53
2021/07/26 10:46:56;;;;;;;6.18;3.17;;;23.00;86.20;;;;;;5014964;28;20049;-52
2021/07/26 10:49:45;;;;;;;6.65;3.80;;;23.20;85.10;;;;;;5010136;28;20049;-50
2021/07/26 10:52:46;;;;;;;5.38;3.45;;;23.30;80.50;;;;;;5014972;28;20062;-50
2021/07/26 10:56:00;;;;;;;5.57;3.58;;;23.20;81.50;;;;;;5001447;28;20046;-53
2021/07/26 10:58:38;;;;;;;5.43;3.58;;;23.30;80.80;;;;;;5003347;28;20394;-51
2021/07/26 11:01:19;;;;;;;7.00;3.42;;;23.30;79.80;;;;;;5007850;28;20046;-52
2021/07/26 11:03:50;;;;;;;5.53;3.45;;;23.40;78.40;;;;;;5000957;28;20121;-54
2021/07/26 11:06:34;;;;;;;6.18;3.47;;;23.30;80.10;;;;;;5006837;28;20053;-53
2021/07/26 11:09:21;;;;;;;7.05;4.40;;;23.40;80.70;;;;;;4992973;28;20417;-52
2021/07/26 11:11:53;;;;;;;6.50;3.78;;;23.40;76.70;;;;;;4993119;28;20048;-51
2021/07/26 11:14:19;;;;;;;5.60;3.85;;;23.30;79.30;;;;;;4984450;28;20461;-54
2021/07/26 11:17:00;;;;;;;7.78;4.20;;;23.20;81.10;;;;;;5011310;28;20068;-53
2021/07/26 11:19:44;;;;;;;6.80;4.10;;;23.30;81.70;;;;;;5010357;28;20049;-53
2021/07/26 11:22:17;;;;;;;9.80;4.43;;;23.50;82.20;;;;;;5011857;28;20042;-54
2021/07/26 11:24:48;;;;;;;7.03;4.03;;;23.70;82.10;;;;;;5013209;28;20038;-51
2021/07/26 11:27:21;;;;;;;5.40;3.25;;;23.70;82.00;;;;;;5000933;28;20053;-53
2021/07/26 11:29:54;;;;;;;4.85;3.85;;;23.90;81.90;;;;;;5002588;28;20062;-51
2021/07/26 11:32:27;;;;;;;4.70;3.90;;;24.10;79.70;;;;;;5008945;28;20507;-53
2021/07/26 11:34:54;;;;;;;6.63;4.10;;;24.20;76.40;;;;;;5012769;28;20069;-50
2021/07/26 11:37:46;;;;;;;4.70;3.47;;;24.20;75.50;;;;;;5012685;28;20483;-49
2021/07/26 11:40:16;;;;;;;7.88;3.55;;;24.20;73.00;;;;;;5015264;28;20550;-51
2021/07/26 11:42:43;;;;;;;6.55;3.80;;;24.10;73.50;;;;;;5019938;28;20030;-49
2021/07/26 11:45:16;;;;;;;5.30;3.47;;;24.10;74.60;;;;;;5018457;28;20053;-53
2021/07/26 11:47:51;;;;;;;4.85;3.40;;;24.10;77.10;;;;;;5019149;28;20053;-50
2021/07/26 11:50:22;;;;;;;4.50;3.30;;;24.20;77.00;;;;;;5017266;28;20050;-49
2021/07/26 11:52:53;;;;;;;6.35;3.33;;;24.30;77.20;;;;;;5018033;28;20112;-49
2021/07/26 11:55:19;;;;;;;7.07;3.30;;;24.20;73.10;;;;;;4996277;28;20050;-54
2021/07/26 11:58:01;;;;;;;4.47;3.40;;;24.00;75.30;;;;;;5018973;28;20042;-53
2021/07/26 12:00:45;;;;;;;5.25;3.95;;;24.00;77.70;;;;;;5018807;28;20037;-50
2021/07/26 12:03:20;;;;;;;4.70;3.33;;;23.90;76.60;;;;;;5008300;28;20084;-51
2021/07/26 12:05:47;;;;;;;5.85;3.58;;;24.00;77.00;;;;;;5015677;28;20058;-52
2021/07/26 12:08:17;;;;;;;6.63;3.42;;;24.10;76.50;;;;;;5016633;28;20034;-50
2021/07/26 12:10:44;;;;;;;5.55;3.30;;;24.20;73.90;;;;;;5007343;28;20044;-53
2021/07/26 12:13:19;;;;;;;4.85;3.45;;;24.20;74.50;;;;;;5009110;28;20049;-52
2021/07/26 12:15:49;;;;;;;5.65;3.58;;;24.10;75.00;;;;;;5016129;28;20054;-51
2021/07/26 12:18:18;;;;;;;5.43;3.85;;;24.10;75.40;;;;;;5016487;28;20100;-50
2021/07/26 12:21:00;;;;;;;5.07;3.50;;;24.20;76.30;;;;;;5016686;28;20034;-54
2021/07/26 12:23:27;;;;;;;5.97;4.00;;;24.30;75.80;;;;;;5017219;28;20042;-53
2021/07/26 12:25:58;;;;;;;4.57;3.63;;;24.50;75.60;;;;;;5014566;28;20180;-51
2021/07/26 12:28:45;;;;;;;5.55;3.50;;;24.60;74.00;;;;;;4998883;28;20046;-49
2021/07/26 12:31:43;;;;;;;6.60;4.32;;;24.60;70.80;;;;;;5012485;28;20049;-50
2021/07/26 12:34:18;;;;;;;4.78;3.70;;;24.60;69.80;;;;;;5011542;28;20069;-49
2021/07/26 12:36:46;;;;;;;4.03;3.45;;;24.60;70.40;;;;;;5023232;28;20033;-54
2021/07/26 12:39:12;;;;;;;5.75;4.28;;;24.60;68.80;;;;;;5027057;28;20061;-52
2021/07/26 12:41:39;;;;;;;5.20;3.92;;;24.60;71.70;;;;;;5027943;28;20471;-50
2021/07/26 12:44:27;;;;;;;5.90;3.97;;;24.60;67.50;;;;;;5019795;28;20178;-51
2021/07/26 12:46:54;;;;;;;4.70;3.75;;;24.60;67.70;;;;;;5014222;28;20053;-52
2021/07/26 12:49:21;;;;;;;6.43;3.25;;;24.50;69.20;;;;;;5013653;28;20418;-52